CYDA

Dawson City Airport

Dawson City, , Canada
METAR CYDA 162100Z VRB02KT 20SM OVC045 M19/M22 A2912 RMK SC8 SLP904
Observed Flight Rules
Dec-16 @ 21:00 UTC (an hour ago) Visual Flight Rules
Wind Visibility Clouds
Variable at 2 knots 20 miles
  • Overcast at 4,500' AGL
Temperatures Readings
Current -19°C / -2°F
Dewpoint -22°C / -8°F
Humidity 77%
Altimeter 29.12" Hg
Pressure 990.4 hPa
Elevation 369
METAR CYDA 162100Z VRB02KT 20SM OVC045 M19/M22 A2912 RMK SC8 SLP904
Observed Flight Rules
Dec-16 @ 21:00 UTC
(an hour ago)
VFR
Wind Visibility
Variable at 2 knots 20 miles
Clouds
  • Overcast at 4,500' AGL
Temperature Dewpoint
-19°C / -2°F -22°C / -8°F
Humidity Altimeter Pressure
77% 29.12" Hg 990.4 hPa